Terminal Aerodrome Forecast
Issued by NWS Cleveland, OH

Home | Current Version | Previous Version | Text Only | Print | Product List | Glossary On
Versions: 1 2 3 4 5 6 7 8 9 10 11 12 13 14 15 16 17 18 19 20
000
FTUS41 KCLE 231510 AAA
TAFCLE
TAF AMD
KCLE 231510Z 2315/2418 17014G22KT P6SM SCT080 OVC250
     FM231800 15017G25KT P6SM -SHRA BKN040 OVC080
     FM232100 16018G28KT 5SM RA OVC025
     FM240000 18015KT P6SM -RA OVC025
     FM240300 22015G25KT P6SM -SHRA OVC015
     FM240800 22015G25KT P6SM OVC035=

USA.gov is the U.S. government's official web portal to all federal, state and local government web resources and services.